Map

Track Data

SID SEASON NUMBER BASIN SUBBASIN NAME ISO_TIME NATURE LAT LON WMO_WIND WMO_PRES WMO_AGENCY TRACK_TYPE DIST2LAND LANDFALL IFLAG USA_AGENCY USA_ATCF_ID USA_LAT USA_LON USA_RECORD USA_STATUS USA_WIND USA_PRES USA_SSHS USA_R34_NE USA_R34_SE USA_R34_SW USA_R34_NW USA_R50_NE USA_R50_SE USA_R50_SW USA_R50_NW USA_R64_NE USA_R64_SE USA_R64_SW USA_R64_NW USA_POCI USA_ROCI USA_RMW USA_EYE TOKYO_LAT TOKYO_LON TOKYO_GRADE TOKYO_WIND TOKYO_PRES TOKYO_R50_DIR TOKYO_R50_LONG TOKYO_R50_SHORT TOKYO_R30_DIR TOKYO_R30_LONG TOKYO_R30_SHORT TOKYO_LAND CMA_LAT CMA_LON CMA_CAT CMA_WIND CMA_PRES HKO_LAT HKO_LON HKO_CAT HKO_WIND HKO_PRES NEWDELHI_LAT NEWDELHI_LON NEWDELHI_GRADE NEWDELHI_WIND NEWDELHI_PRES NEWDELHI_CI NEWDELHI_DP NEWDELHI_POCI REUNION_LAT REUNION_LON REUNION_TYPE REUNION_WIND REUNION_PRES REUNION_TNUM REUNION_CI REUNION_RMW REUNION_R34_NE REUNION_R34_SE REUNION_R34_SW REUNION_R34_NW REUNION_R50_NE REUNION_R50_SE REUNION_R50_SW REUNION_R50_NW REUNION_R64_NE REUNION_R64_SE REUNION_R64_SW REUNION_R64_NW BOM_LAT BOM_LON BOM_TYPE BOM_WIND BOM_PRES BOM_TNUM BOM_CI BOM_RMW BOM_R34_NE BOM_R34_SE BOM_R34_SW BOM_R34_NW BOM_R50_NE BOM_R50_SE BOM_R50_SW BOM_R50_NW BOM_R64_NE BOM_R64_SE BOM_R64_SW BOM_R64_NW BOM_ROCI BOM_POCI BOM_EYE BOM_POS_METHOD BOM_PRES_METHOD NADI_LAT NADI_LON NADI_CAT NADI_WIND NADI_PRES WELLINGTON_LAT WELLINGTON_LON WELLINGTON_WIND WELLINGTON_PRES DS824_LAT DS824_LON DS824_STAGE DS824_WIND DS824_PRES TD9636_LAT TD9636_LON TD9636_STAGE TD9636_WIND TD9636_PRES TD9635_LAT TD9635_LON TD9635_WIND TD9635_PRES TD9635_ROCI NEUMANN_LAT NEUMANN_LON NEUMANN_CLASS NEUMANN_WIND NEUMANN_PRES MLC_LAT MLC_LON MLC_CLASS MLC_WIND MLC_PRES USA_GUST BOM_GUST BOM_GUST_PER REUNION_GUST REUNION_GUST_PER USA_SEAHGT USA_SEARAD_NE USA_SEARAD_SE USA_SEARAD_SW USA_SEARAD_NW STORM_SPEED STORM_DIR
1981258N15237 1981 81 EP MM JOVA 1981-09-14 12:00:00 TS 14.5000 -123.400 30 hurdat_epa main 1642 1642 O_________O___ hurdat_epa EP101981 14.5000 -123.400 TD 30 -1 14.5000 -123.400 1 30 12 275
1981258N15237 1981 81 EP MM JOVA 1981-09-14 15:00:00 TS 14.5507 -123.999 main 1679 1679 P_________P___ EP101981 14.5478 -124.000 TD 32 -1 14.5595 -123.995 1 31 12 275
1981258N15237 1981 81 EP MM JOVA 1981-09-14 18:00:00 TS 14.6037 -124.598 35 hurdat_epa main 1726 1726 O_________P___ hurdat_epa EP101981 14.6000 -124.600 TS 35 0 14.6147 -124.593 1 32 12 275
1981258N15237 1981 81 EP MM JOVA 1981-09-14 21:00:00 TS 14.6586 -125.198 main 1766 1766 P_________P___ EP101981 14.6573 -125.200 TS 35 0 14.6625 -125.194 1 33 12 275
1981258N15237 1981 81 EP MM JOVA 1981-09-15 00:00:00 TS 14.7000 -125.800 35 hurdat_epa main 1814 1814 O_________O___ hurdat_epa EP101981 14.7000 -125.800 TS 35 0 14.7000 -125.800 2 35 12 272
1981258N15237 1981 81 EP MM JOVA 1981-09-15 03:00:00 TS 14.7064 -126.403 main 1864 1864 P_________P___ EP101981 14.6998 -126.400 TS 37 0 14.7260 -126.411 2 40 12 271
1981258N15237 1981 81 EP MM JOVA 1981-09-15 06:00:00 TS 14.7116 -127.005 40 hurdat_epa main 1910 1910 O_________P___ hurdat_epa EP101981 14.7000 -127.000 TS 40 0 14.7463 -127.021 2 45 12 272
1981258N15237 1981 81 EP MM JOVA 1981-09-15 09:00:00 TS 14.7489 -127.611 main 1951 1942 P_________P___ EP101981 14.7424 -127.607 TS 47 0 14.7684 -127.620 2 50 12 274
1981258N15237 1981 81 EP MM JOVA 1981-09-15 12:00:00 TS 14.8000 -128.200 55 hurdat_epa main 1984 1984 O_________O___ hurdat_epa EP101981 14.8000 -128.200 TS 55 0 14.8000 -128.200 2 55 11 274
1981258N15237 1981 81 EP MM JOVA 1981-09-15 15:00:00 TS 14.8340 -128.772 main 2027 2027 P_________P___ EP101981 14.8349 -128.773 TS 60 0 14.8311 -128.771 2 60 11 275
1981258N15237 1981 81 EP MM JOVA 1981-09-15 18:00:00 TS 14.9000 -129.300 65 hurdat_epa main 2055 2055 O_________O___ hurdat_epa EP101981 14.9000 -129.300 HU 65 1 14.9000 -129.300 3 65 10 282
1981258N15237 1981 81 EP MM JOVA 1981-09-15 21:00:00 TS 15.0339 -129.778 main 2085 2077 P_________P___ EP101981 15.0349 -129.780 HU 67 1 15.0311 -129.774 3 67 9 289
1981258N15237 1981 81 EP MM JOVA 1981-09-16 00:00:00 TS 15.2000 -130.200 70 hurdat_epa main 2100 2099 O_________O___ hurdat_epa EP101981 15.2000 -130.200 HU 70 1 15.2000 -130.200 4 70 8 292
1981258N15237 1981 81 EP MM JOVA 1981-09-16 03:00:00 TS 15.3471 -130.569 main 2123 2115 P_________P___ EP101981 15.3423 -130.558 HU 70 1 15.3615 -130.601 4 70 8 294
1981258N15237 1981 81 EP MM JOVA 1981-09-16 06:00:00 TS 15.5081 -130.919 70 hurdat_epa main 2131 2131 O_________P___ hurdat_epa EP101981 15.5000 -130.900 HU 70 1 15.5325 -130.974 4 70 8 296
1981258N15237 1981 81 EP MM JOVA 1981-09-16 09:00:00 TS 15.6974 -131.303 main 2148 2148 P_________P___ EP101981 15.6925 -131.293 HU 70 1 15.7123 -131.335 4 70 9 298
1981258N15237 1981 81 EP MM JOVA 1981-09-16 12:00:00 TS 15.9000 -131.700 70 hurdat_epa main 2166 2166 O_________O___ hurdat_epa EP101981 15.9000 -131.700 HU 70 1 15.9000 -131.700 4 70 9 297
1981258N15237 1981 81 EP MM JOVA 1981-09-16 15:00:00 TS 16.0930 -132.097 main 2184 2184 P_________P___ EP101981 16.0999 -132.100 HU 70 1 16.0723 -132.089 4 71 9 297
1981258N15237 1981 81 EP MM JOVA 1981-09-16 18:00:00 TS 16.2887 -132.496 70 hurdat_epa main 2204 2204 O_________P___ hurdat_epa EP101981 16.3000 -132.500 HU 70 1 16.2547 -132.486 4 72 9 296
1981258N15237 1981 81 EP MM JOVA 1981-09-16 21:00:00 TS 16.4730 -132.903 main 2223 2223 P_________P___ EP101981 16.4775 -132.908 HU 72 1 16.4598 -132.889 4 73 9 298
1981258N15237 1981 81 EP MM JOVA 1981-09-17 00:00:00 TS 16.7000 -133.300 75 hurdat_epa main 2244 2244 O_________O___ hurdat_epa EP101981 16.7000 -133.300 HU 75 1 16.7000 -133.300 4 75 9 307
1981258N15237 1981 81 EP MM JOVA 1981-09-17 03:00:00 TS 17.0222 -133.650 main 2250 2205 P_________P___ EP101981 17.0348 -133.635 HU 75 1 16.9844 -133.694 4 73 10 314
1981258N15237 1981 81 EP MM JOVA 1981-09-17 06:00:00 TS 17.3760 -134.025 75 hurdat_epa main 2205 2147 O_________P___ hurdat_epa EP101981 17.4000 -134.000 HU 75 1 17.3041 -134.098 4 72 10 309
1981258N15237 1981 81 EP MM JOVA 1981-09-17 09:00:00 TS 17.6811 -134.490 main 2147 2090 P_________P___ EP101981 17.6925 -134.478 HU 72 1 17.6468 -134.529 4 71 11 304
1981258N15237 1981 81 EP MM JOVA 1981-09-17 12:00:00 TS 18.0000 -135.000 70 hurdat_epa main 2090 2032 O_________O___ hurdat_epa EP101981 18.0000 -135.000 HU 70 1 18.0000 -135.000 4 70 12 307
1981258N15237 1981 81 EP MM JOVA 1981-09-17 15:00:00 TS 18.3966 -135.487 main 2032 1975 P_________P___ EP101981 18.3997 -135.478 HU 67 1 18.3872 -135.515 4 68 13 309
1981258N15237 1981 81 EP MM JOVA 1981-09-17 18:00:00 TS 18.7936 -136.018 65 hurdat_epa main 1975 1909 O_________P___ hurdat_epa EP101981 18.8000 -136.000 HU 65 1 18.7744 -136.074 4 67 13 303
1981258N15237 1981 81 EP MM JOVA 1981-09-17 21:00:00 TS 19.1117 -136.639 main 1909 1834 P_________P___ EP101981 19.1075 -136.628 HU 65 1 19.1245 -136.671 4 66 14 297
1981258N15237 1981 81 EP MM JOVA 1981-09-18 00:00:00 TS 19.4000 -137.300 65 hurdat_epa main 1834 1769 O_________O___ hurdat_epa EP101981 19.4000 -137.300 HU 65 1 19.4000 -137.300 4 65 14 298
1981258N15237 1981 81 EP MM JOVA 1981-09-18 03:00:00 TS 19.7638 -137.933 main 1769 1706 P_________P___ EP101981 19.8247 -137.942 HU 65 1 19.5810 -137.906 4 63 14 296
1981258N15237 1981 81 EP MM JOVA 1981-09-18 06:00:00 TS 19.9957 -138.586 65 hurdat_epa main 1695 1633 O_________P___ hurdat_epa EP101981 20.1000 -138.600 HU 65 1 19.6827 -138.546 4 62 13 277
1981258N15237 1981 81 EP MM JOVA 1981-09-18 09:00:00 TS 19.9160 -139.262 main 1622 1549 P_________P___ EP101981 19.9820 -139.271 HU 62 0 19.7180 -139.237 4 61 14 257
1981258N15237 1981 81 EP CP JOVA 1981-09-18 12:00:00 TS 19.7000 -140.000 60 hurdat_epa main 1549 1467 O_________O___ hurdat_epa EP101981 19.7000 -140.000 TS 60 0 19.7000 -140.000 2 60 15 254
1981258N15237 1981 81 EP CP JOVA 1981-09-18 15:00:00 TS 19.5076 -140.815 main 1467 1373 P_________P___ EP101981 19.4696 -140.805 TS 55 0 19.6216 -140.843 2 55 17 258
1981258N15237 1981 81 EP CP JOVA 1981-09-18 18:00:00 TS 19.3469 -141.713 50 hurdat_epa main 1373 1279 O_________P___ hurdat_epa EP101981 19.3000 -141.700 TS 50 0 19.4995 -141.756 2 50 18 263
1981258N15237 1981 81 EP CP JOVA 1981-09-18 21:00:00 TS 19.2914 -142.688 main 1269 1174 P_________P___ EP101981 19.2623 -142.677 TS 45 0 19.3775 -142.715 2 45 19 269
1981258N15237 1981 81 EP CP JOVA 1981-09-19 00:00:00 TS 19.3000 -143.700 40 hurdat_epa main 1164 1069 O_________O___ hurdat_epa EP101981 19.3000 -143.700 TS 40 0 19.3000 -143.700 2 40 19 271
1981258N15237 1981 81 EP CP JOVA 1981-09-19 03:00:00 TS 19.3292 -144.700 main 1059 964 P_________P___ EP101981 19.3345 -144.700 TS 40 0 19.3082 -144.698 2 40 19 273
1981258N15237 1981 81 EP CP JOVA 1981-09-19 06:00:00 TS 19.3935 -145.703 40 hurdat_epa main 954 859 O_________P___ hurdat_epa EP101981 19.4000 -145.700 TS 40 0 19.3673 -145.714 2 40 19 274
1981258N15237 1981 81 EP CP JOVA 1981-09-19 09:00:00 TS 19.4751 -146.705 main 848 754 P_________P___ EP101981 19.4770 -146.700 TS 40 0 19.4676 -146.724 2 40 19 276
1981258N15237 1981 81 EP CP JOVA 1981-09-19 12:00:00 TS 19.6000 -147.700 40 hurdat_epa main 743 639 O_________O___ hurdat_epa EP101981 19.6000 -147.700 TS 40 0 19.6000 -147.700 2 40 19 279
1981258N15237 1981 81 EP CP JOVA 1981-09-19 15:00:00 TS 19.7796 -148.714 main 639 547 P_________P___ EP101981 19.7925 -148.737 TS 37 0 19.7281 -148.619 2 38 19 282
1981258N15237 1981 81 EP CP JOVA 1981-09-19 18:00:00 TS 19.9775 -149.661 35 hurdat_epa main 536 465 O_________P___ hurdat_epa EP101981 20.0000 -149.700 TS 35 0 19.8876 -149.503 2 37 17 282
1981258N15237 1981 81 EP CP JOVA 1981-09-19 21:00:00 TS 20.1288 -150.451 main 454 386 P_________P___ EP101981 20.1415 -150.473 TS 35 0 20.0784 -150.360 2 36 15 283
1981258N15237 1981 81 EP CP JOVA 1981-09-20 00:00:00 TS 20.3000 -151.200 35 hurdat_epa main 386 313 O_________O___ hurdat_epa EP101981 20.3000 -151.200 TS 35 0 20.3000 -151.200 2 35 15 285
1981258N15237 1981 81 EP CP JOVA 1981-09-20 03:00:00 TS 20.5242 -152.037 main 313 254 P_________P___ EP101981 20.5274 -152.043 TS 35 0 20.5113 -152.013 2 35 17 287
1981258N15237 1981 81 EP CP JOVA 1981-09-20 06:00:00 TS 20.7913 -152.883 35 hurdat_epa main 245 198 O_________P___ hurdat_epa EP101981 20.8000 -152.900 TS 35 0 20.7565 -152.816 2 35 16 289
1981258N15237 1981 81 EP CP JOVA 1981-09-20 09:00:00 TS 21.0526 -153.652 main 198 172 P_________P___ EP101981 21.0534 -153.642 TS 35 0 21.0485 -153.636 2 35 16 292
1981258N15237 1981 81 EP CP JOVA 1981-09-20 12:00:00 TS 21.4000 -154.500 35 hurdat_epa main 169 127 O_________O___ hurdat_epa EP101981 21.4000 -154.500 TS 35 0 21.4000 -154.500 2 35 20 295
1981258N15237 1981 81 EP CP JOVA 1981-09-20 15:00:00 TS 21.9124 -155.599 main 129 126 P_________P___ EP101981 21.9369 -155.756 TS 32 -1 21.8176 -155.430 2 32 23 297
1981258N15237 1981 81 EP CP JOVA 1981-09-20 18:00:00 TS 22.4573 -156.723 30 hurdat_epa main 159 137 O_________P___ hurdat_epa EP101981 22.5000 -157.000 TD 30 -1 22.2867 -156.417 2 30 22 298
1981258N15237 1981 81 EP CP JOVA 1981-09-20 21:00:00 TS 22.9112 -157.672 main 146 146 P_________P___ EP101981 22.9413 -157.873 TD 27 -1 22.7874 -157.446 2 27 18 297
1981258N15237 1981 81 EP CP JOVA 1981-09-21 00:00:00 TS 23.3000 -158.500 25 hurdat_epa main 157 O_________O___ hurdat_epa EP101981 23.3000 -158.500 TD 25 -1 23.3000 -158.500 1 25 17 297

About IBTrACS Database

This database is a web-friendly format of International Best Track Archive for Climate Stewardship (IBTrACS), a global best track data archive curated by NOAA dating back to 1842.

Updated: 2021-10-19